sensor_id;sensor_type;location;lat;lon;timestamp;pressure;altitude;pressure_sealevel;temperature;humidity
84255;BME280;74400;44.692;18.998;2023-12-28T00:01:08;100677.41;;;3.31;76.75
84255;BME280;74400;44.692;18.998;2023-12-28T00:03:34;100680.59;;;3.39;76.69
84255;BME280;74400;44.692;18.998;2023-12-28T00:05:59;100676.16;;;3.47;76.10
84255;BME280;74400;44.692;18.998;2023-12-28T00:08:27;100673.47;;;3.53;75.76
84255;BME280;74400;44.692;18.998;2023-12-28T00:10:52;100675.31;;;3.48;76.14
84255;BME280;74400;44.692;18.998;2023-12-28T00:13:18;100671.88;;;3.49;75.99
84255;BME280;74400;44.692;18.998;2023-12-28T00:15:44;100674.47;;;3.46;76.34
84255;BME280;74400;44.692;18.998;2023-12-28T00:18:09;100671.06;;;3.47;75.90
84255;BME280;74400;44.692;18.998;2023-12-28T00:20:35;100671.06;;;3.47;75.47
84255;BME280;74400;44.692;18.998;2023-12-28T00:23:01;100668.66;;;3.41;75.84
84255;BME280;74400;44.692;18.998;2023-12-28T00:25:27;100679.66;;;3.43;76.10
84255;BME280;74400;44.692;18.998;2023-12-28T00:27:52;100687.09;;;3.51;76.43
84255;BME280;74400;44.692;18.998;2023-12-28T00:30:18;100682.09;;;3.48;76.23
84255;BME280;74400;44.692;18.998;2023-12-28T00:32:44;100683.00;;;3.45;76.37
84255;BME280;74400;44.692;18.998;2023-12-28T00:35:11;100675.34;;;3.45;76.23
84255;BME280;74400;44.692;18.998;2023-12-28T00:37:37;100679.69;;;3.42;76.59
84255;BME280;74400;44.692;18.998;2023-12-28T00:40:03;100685.56;;;3.44;77.37
84255;BME280;74400;44.692;18.998;2023-12-28T00:42:28;100686.31;;;3.49;77.10
84255;BME280;74400;44.692;18.998;2023-12-28T00:44:54;100676.25;;;3.44;76.76
84255;BME280;74400;44.692;18.998;2023-12-28T00:47:20;100690.44;;;3.53;76.85
84255;BME280;74400;44.692;18.998;2023-12-28T00:49:45;100688.72;;;3.53;77.17
84255;BME280;74400;44.692;18.998;2023-12-28T00:52:11;100693.78;;;3.55;76.94
84255;BME280;74400;44.692;18.998;2023-12-28T00:54:36;100694.53;;;3.59;76.17
84255;BME280;74400;44.692;18.998;2023-12-28T00:57:03;100691.34;;;3.50;76.60
84255;BME280;74400;44.692;18.998;2023-12-28T00:59:29;100688.03;;;3.47;76.56
84255;BME280;74400;44.692;18.998;2023-12-28T01:01:58;100698.06;;;3.55;76.86
84255;BME280;74400;44.692;18.998;2023-12-28T01:04:24;100700.47;;;3.59;76.96
84255;BME280;74400;44.692;18.998;2023-12-28T01:06:50;100693.41;;;3.70;76.69
84255;BME280;74400;44.692;18.998;2023-12-28T01:09:15;100690.75;;;3.75;76.43
84255;BME280;74400;44.692;18.998;2023-12-28T01:11:42;100692.38;;;3.77;76.35
84255;BME280;74400;44.692;18.998;2023-12-28T01:14:07;100699.41;;;3.68;76.37
84255;BME280;74400;44.692;18.998;2023-12-28T01:16:33;100692.69;;;3.65;76.03
84255;BME280;74400;44.692;18.998;2023-12-28T01:19:01;100699.63;;;3.59;76.40
84255;BME280;74400;44.692;18.998;2023-12-28T01:21:27;100696.00;;;3.69;75.91
84255;BME280;74400;44.692;18.998;2023-12-28T01:23:54;100702.75;;;3.70;75.17
84255;BME280;74400;44.692;18.998;2023-12-28T01:26:20;100693.69;;;3.58;75.56
84255;BME280;74400;44.692;18.998;2023-12-28T01:28:46;100689.59;;;3.52;75.60
84255;BME280;74400;44.692;18.998;2023-12-28T01:31:12;100695.50;;;3.53;75.31
84255;BME280;74400;44.692;18.998;2023-12-28T01:33:38;100696.47;;;3.49;75.10
84255;BME280;74400;44.692;18.998;2023-12-28T01:36:18;100700.78;;;3.45;74.80
84255;BME280;74400;44.692;18.998;2023-12-28T01:38:44;100700.88;;;3.41;75.15
84255;BME280;74400;44.692;18.998;2023-12-28T01:41:09;100701.06;;;3.33;75.43
84255;BME280;74400;44.692;18.998;2023-12-28T01:43:35;100696.00;;;3.33;75.05
84255;BME280;74400;44.692;18.998;2023-12-28T01:46:02;100693.84;;;3.15;75.65
84255;BME280;74400;44.692;18.998;2023-12-28T01:48:28;100702.63;;;3.02;75.83
84255;BME280;74400;44.692;18.998;2023-12-28T01:53:20;100693.19;;;3.07;76.46
84255;BME280;74400;44.692;18.998;2023-12-28T01:55:46;100695.56;;;3.16;75.45
84255;BME280;74400;44.692;18.998;2023-12-28T01:58:12;100689.97;;;3.00;75.62
84255;BME280;74400;44.692;18.998;2023-12-28T02:00:38;100698.50;;;2.97;76.15
84255;BME280;74400;44.692;18.998;2023-12-28T02:03:06;100693.41;;;2.97;76.30
84255;BME280;74400;44.692;18.998;2023-12-28T02:05:33;100684.13;;;2.96;75.48
84255;BME280;74400;44.692;18.998;2023-12-28T02:07:59;100683.50;;;2.85;75.93
84255;BME280;74400;44.692;18.998;2023-12-28T02:10:25;100681.91;;;2.81;76.69
84255;BME280;74400;44.692;18.998;2023-12-28T02:12:52;100672.72;;;2.74;76.70
84255;BME280;74400;44.692;18.998;2023-12-28T02:15:19;100673.59;;;2.73;76.56
84255;BME280;74400;44.692;18.998;2023-12-28T02:20:21;100671.63;;;2.86;76.02
84255;BME280;74400;44.692;18.998;2023-12-28T02:22:48;100672.34;;;2.92;76.52
84255;BME280;74400;44.692;18.998;2023-12-28T02:25:14;100672.22;;;2.98;75.78
84255;BME280;74400;44.692;18.998;2023-12-28T02:27:45;100669.84;;;2.89;75.22
84255;BME280;74400;44.692;18.998;2023-12-28T02:30:16;100665.13;;;2.74;75.85
84255;BME280;74400;44.692;18.998;2023-12-28T02:35:26;100652.84;;;2.54;76.46
84255;BME280;74400;44.692;18.998;2023-12-28T02:37:56;100651.22;;;2.52;77.58
84255;BME280;74400;44.692;18.998;2023-12-28T02:40:23;100652.16;;;2.46;76.94
84255;BME280;74400;44.692;18.998;2023-12-28T02:42:50;100652.03;;;2.51;78.05
84255;BME280;74400;44.692;18.998;2023-12-28T02:45:17;100647.78;;;2.53;77.32
84255;BME280;74400;44.692;18.998;2023-12-28T02:47:44;100646.97;;;2.52;76.95
84255;BME280;74400;44.692;18.998;2023-12-28T02:50:09;100646.97;;;2.52;76.85
84255;BME280;74400;44.692;18.998;2023-12-28T02:52:35;100651.25;;;2.49;76.40
84255;BME280;74400;44.692;18.998;2023-12-28T02:55:01;100652.88;;;2.53;77.72
84255;BME280;74400;44.692;18.998;2023-12-28T02:57:27;100655.41;;;2.53;76.96
84255;BME280;74400;44.692;18.998;2023-12-28T02:59:53;100652.16;;;2.46;76.64
84255;BME280;74400;44.692;18.998;2023-12-28T03:02:19;100644.47;;;2.49;76.88
84255;BME280;74400;44.692;18.998;2023-12-28T03:04:46;100648.75;;;2.47;76.92
84255;BME280;74400;44.692;18.998;2023-12-28T03:07:12;100652.13;;;2.48;76.54
84255;BME280;74400;44.692;18.998;2023-12-28T03:09:38;100649.59;;;2.48;77.35
84255;BME280;74400;44.692;18.998;2023-12-28T03:12:05;100643.78;;;2.41;76.45
84255;BME280;74400;44.692;18.998;2023-12-28T03:14:31;100640.44;;;2.40;76.69
84255;BME280;74400;44.692;18.998;2023-12-28T03:16:57;100639.59;;;2.40;76.64
84255;BME280;74400;44.692;18.998;2023-12-28T03:19:23;100633.72;;;2.36;77.13
84255;BME280;74400;44.692;18.998;2023-12-28T03:21:49;100636.50;;;2.24;77.36
84255;BME280;74400;44.692;18.998;2023-12-28T03:24:14;100628.19;;;2.17;77.94
84255;BME280;74400;44.692;18.998;2023-12-28T03:26:40;100629.63;;;2.29;78.21
84255;BME280;74400;44.692;18.998;2023-12-28T03:29:07;100627.06;;;2.32;77.12
84255;BME280;74400;44.692;18.998;2023-12-28T03:31:38;100629.69;;;2.28;77.03
84255;BME280;74400;44.692;18.998;2023-12-28T03:34:03;100627.19;;;2.26;77.59
84255;BME280;74400;44.692;18.998;2023-12-28T03:36:29;100625.44;;;2.28;76.73
84255;BME280;74400;44.692;18.998;2023-12-28T03:38:55;100625.69;;;2.16;76.73
84255;BME280;74400;44.692;18.998;2023-12-28T03:41:20;100620.63;;;2.14;77.22
84255;BME280;74400;44.692;18.998;2023-12-28T03:43:47;100609.66;;;2.14;77.10
84255;BME280;74400;44.692;18.998;2023-12-28T03:46:13;100610.53;;;2.13;77.16
84255;BME280;74400;44.692;18.998;2023-12-28T03:48:39;100612.44;;;2.02;77.87
84255;BME280;74400;44.692;18.998;2023-12-28T03:51:05;100606.44;;;2.04;78.44
84255;BME280;74400;44.692;18.998;2023-12-28T03:53:31;100592.78;;;2.11;77.70
84255;BME280;74400;44.692;18.998;2023-12-28T03:56:00;100597.88;;;2.10;77.50
84255;BME280;74400;44.692;18.998;2023-12-28T03:58:26;100598.72;;;2.10;77.69
84255;BME280;74400;44.692;18.998;2023-12-28T04:00:52;100603.03;;;2.07;77.62
84255;BME280;74400;44.692;18.998;2023-12-28T04:03:18;100606.38;;;2.09;77.13
84255;BME280;74400;44.692;18.998;2023-12-28T04:05:44;100607.28;;;2.05;77.59
84255;BME280;74400;44.692;18.998;2023-12-28T04:08:10;100608.00;;;2.13;77.53
84255;BME280;74400;44.692;18.998;2023-12-28T04:10:35;100596.88;;;2.17;77.84
84255;BME280;74400;44.692;18.998;2023-12-28T04:13:03;100600.94;;;2.27;76.65
84255;BME280;74400;44.692;18.998;2023-12-28T04:15:29;100600.94;;;2.27;77.00
84255;BME280;74400;44.692;18.998;2023-12-28T04:17:56;100589.16;;;2.23;76.64
84255;BME280;74400;44.692;18.998;2023-12-28T04:20:22;100579.09;;;2.20;76.09
84255;BME280;74400;44.692;18.998;2023-12-28T04:22:49;100577.53;;;2.13;76.60
84255;BME280;74400;44.692;18.998;2023-12-28T04:25:15;100577.53;;;2.13;76.72
84255;BME280;74400;44.692;18.998;2023-12-28T04:27:43;100572.59;;;2.07;76.37
84255;BME280;74400;44.692;18.998;2023-12-28T04:30:12;100573.66;;;1.95;76.98
84255;BME280;74400;44.692;18.998;2023-12-28T04:32:38;100582.84;;;1.99;76.18
84255;BME280;74400;44.692;18.998;2023-12-28T04:35:05;100589.81;;;1.89;77.30
84255;BME280;74400;44.692;18.998;2023-12-28T04:37:34;100587.94;;;2.01;77.31
84255;BME280;74400;44.692;18.998;2023-12-28T04:40:01;100576.94;;;2.00;76.39
84255;BME280;74400;44.692;18.998;2023-12-28T04:42:28;100582.97;;;1.95;77.05
84255;BME280;74400;44.692;18.998;2023-12-28T04:44:55;100582.22;;;1.89;77.54
84255;BME280;74400;44.692;18.998;2023-12-28T04:47:20;100579.00;;;1.81;77.94
84255;BME280;74400;44.692;18.998;2023-12-28T04:49:46;100569.94;;;1.68;78.10
84255;BME280;74400;44.692;18.998;2023-12-28T04:52:12;100573.31;;;1.67;77.82
84255;BME280;74400;44.692;18.998;2023-12-28T04:54:40;100577.34;;;1.80;78.27
84255;BME280;74400;44.692;18.998;2023-12-28T04:57:06;100581.41;;;1.87;77.56
84255;BME280;74400;44.692;18.998;2023-12-28T04:59:43;100597.47;;;1.86;76.85
84255;BME280;74400;44.692;18.998;2023-12-28T05:02:08;100600.09;;;1.83;76.63
84255;BME280;74400;44.692;18.998;2023-12-28T05:04:36;100592.88;;;1.62;77.31
84255;BME280;74400;44.692;18.998;2023-12-28T05:07:04;100586.09;;;1.62;78.32
84255;BME280;74400;44.692;18.998;2023-12-28T05:09:29;100594.56;;;1.61;78.02
84255;BME280;74400;44.692;18.998;2023-12-28T05:11:55;100592.88;;;1.60;78.41
84255;BME280;74400;44.692;18.998;2023-12-28T05:14:21;100586.09;;;1.62;78.89
84255;BME280;74400;44.692;18.998;2023-12-28T05:16:46;100584.19;;;1.75;78.58
84255;BME280;74400;44.692;18.998;2023-12-28T05:19:12;100596.88;;;1.75;78.15
84255;BME280;74400;44.692;18.998;2023-12-28T05:21:38;100590.06;;;1.77;78.75
84255;BME280;74400;44.692;18.998;2023-12-28T05:24:03;100585.66;;;1.87;78.69
84255;BME280;74400;44.692;18.998;2023-12-28T05:26:30;100586.66;;;1.78;78.30
84255;BME280;74400;44.692;18.998;2023-12-28T05:28:55;100582.47;;;1.76;79.11
84255;BME280;74400;44.692;18.998;2023-12-28T05:31:21;100595.19;;;1.73;78.74
84255;BME280;74400;44.692;18.998;2023-12-28T05:33:47;100605.38;;;1.71;78.51
84255;BME280;74400;44.692;18.998;2023-12-28T05:40:07;100604.56;;;1.69;78.31
84255;BME280;74400;44.692;18.998;2023-12-28T05:42:35;100602.63;;;1.83;77.18
84255;BME280;74400;44.692;18.998;2023-12-28T05:45:00;100598.53;;;1.76;76.78
84255;BME280;74400;44.692;18.998;2023-12-28T05:47:27;100597.13;;;1.60;77.02
84255;BME280;74400;44.692;18.998;2023-12-28T05:49:52;100599.03;;;1.49;77.91
84255;BME280;74400;44.692;18.998;2023-12-28T05:52:18;100605.69;;;1.53;78.58
84255;BME280;74400;44.692;18.998;2023-12-28T05:54:44;100602.09;;;1.66;78.28
84255;BME280;74400;44.692;18.998;2023-12-28T05:57:10;100608.56;;;1.82;76.88
84255;BME280;74400;44.692;18.998;2023-12-28T05:59:40;100625.38;;;1.86;76.47
84255;BME280;74400;44.692;18.998;2023-12-28T06:02:11;100625.34;;;1.89;76.49
84255;BME280;74400;44.692;18.998;2023-12-28T06:04:37;100631.09;;;1.98;75.73
84255;BME280;74400;44.692;18.998;2023-12-28T06:07:04;100630.94;;;2.07;75.66
84255;BME280;74400;44.692;18.998;2023-12-28T06:09:31;100628.41;;;2.05;75.56
84255;BME280;74400;44.692;18.998;2023-12-28T06:11:56;100624.34;;;1.97;75.59
84255;BME280;74400;44.692;18.998;2023-12-28T06:14:23;100613.53;;;1.88;76.53
84255;BME280;74400;44.692;18.998;2023-12-28T06:16:48;100613.34;;;1.98;75.71
84255;BME280;74400;44.692;18.998;2023-12-28T06:19:21;100614.41;;;1.86;75.70
84255;BME280;74400;44.692;18.998;2023-12-28T06:21:52;100623.66;;;1.88;76.36
84255;BME280;74400;44.692;18.998;2023-12-28T06:24:24;100607.19;;;2.09;75.90
84255;BME280;74400;44.692;18.998;2023-12-28T06:26:50;100619.69;;;2.18;74.05
84255;BME280;74400;44.692;18.998;2023-12-28T06:29:16;100614.88;;;2.05;74.89
84255;BME280;74400;44.692;18.998;2023-12-28T06:31:42;100618.28;;;2.04;75.76
84255;BME280;74400;44.692;18.998;2023-12-28T06:34:08;100619.44;;;1.89;75.57
84255;BME280;74400;44.692;18.998;2023-12-28T06:36:33;100626.09;;;1.95;75.88
84255;BME280;74400;44.692;18.998;2023-12-28T06:38:59;100625.22;;;1.96;76.07
84255;BME280;74400;44.692;18.998;2023-12-28T06:41:25;100628.44;;;2.04;76.02
84255;BME280;74400;44.692;18.998;2023-12-28T06:47:20;100644.53;;;2.03;75.30
84255;BME280;74400;44.692;18.998;2023-12-28T06:50:18;100648.63;;;2.10;75.33
84255;BME280;74400;44.692;18.998;2023-12-28T06:52:44;100647.78;;;2.09;75.74
84255;BME280;74400;44.692;18.998;2023-12-28T06:55:10;100648.59;;;2.13;75.34
84255;BME280;74400;44.692;18.998;2023-12-28T06:57:35;100651.97;;;2.12;74.88
84255;BME280;74400;44.692;18.998;2023-12-28T07:00:01;100647.69;;;2.15;74.74
84255;BME280;74400;44.692;18.998;2023-12-28T07:02:28;100647.78;;;2.09;75.77
84255;BME280;74400;44.692;18.998;2023-12-28T07:04:55;100641.31;;;1.95;76.71
84255;BME280;74400;44.692;18.998;2023-12-28T07:07:20;100642.19;;;1.94;76.63
84255;BME280;74400;44.692;18.998;2023-12-28T07:09:46;100643.84;;;1.93;77.71
84255;BME280;74400;44.692;18.998;2023-12-28T07:12:11;100647.88;;;2.06;77.72
84255;BME280;74400;44.692;18.998;2023-12-28T07:14:38;100646.78;;;2.18;76.71
84255;BME280;74400;44.692;18.998;2023-12-28T07:17:06;100651.69;;;2.27;75.85
84255;BME280;74400;44.692;18.998;2023-12-28T07:19:31;100655.53;;;2.47;75.87
84255;BME280;74400;44.692;18.998;2023-12-28T07:21:57;100653.72;;;2.53;73.94
84255;BME280;74400;44.692;18.998;2023-12-28T07:24:24;100652.03;;;2.52;73.84
84255;BME280;74400;44.692;18.998;2023-12-28T07:26:50;100652.09;;;2.49;74.27
84255;BME280;74400;44.692;18.998;2023-12-28T07:29:16;100646.06;;;2.55;74.29
84255;BME280;74400;44.692;18.998;2023-12-28T07:31:41;100650.16;;;2.60;73.87
84255;BME280;74400;44.692;18.998;2023-12-28T07:34:07;100651.22;;;2.52;74.42
84255;BME280;74400;44.692;18.998;2023-12-28T07:36:33;100654.47;;;2.57;73.82
84255;BME280;74400;44.692;18.998;2023-12-28T07:43:19;100648.66;;;2.52;74.51
84255;BME280;74400;44.692;18.998;2023-12-28T07:45:44;100650.34;;;2.91;74.04
84255;BME280;74400;44.692;18.998;2023-12-28T07:48:10;100642.09;;;4.18;70.69
84255;BME280;74400;44.692;18.998;2023-12-28T07:50:45;100649.38;;;6.20;63.59
84255;BME280;74400;44.692;18.998;2023-12-28T07:53:11;100650.53;;;8.26;56.56
84255;BME280;74400;44.692;18.998;2023-12-28T07:55:47;100647.59;;;9.28;53.25
84255;BME280;74400;44.692;18.998;2023-12-28T07:58:13;100654.06;;;10.85;48.88
84255;BME280;74400;44.692;18.998;2023-12-28T08:00:38;100646.63;;;11.71;46.56
84255;BME280;74400;44.692;18.998;2023-12-28T08:03:04;100657.13;;;12.26;44.33
84255;BME280;74400;44.692;18.998;2023-12-28T08:05:30;100650.94;;;12.14;44.76
84255;BME280;74400;44.692;18.998;2023-12-28T08:07:56;100649.78;;;12.76;43.95
84255;BME280;74400;44.692;18.998;2023-12-28T08:10:21;100648.63;;;13.73;41.98
84255;BME280;74400;44.692;18.998;2023-12-28T08:12:47;100656.47;;;14.23;41.02
84255;BME280;74400;44.692;18.998;2023-12-28T08:15:13;100655.00;;;14.44;39.98
84255;BME280;74400;44.692;18.998;2023-12-28T08:17:39;100660.41;;;14.16;41.17
84255;BME280;74400;44.692;18.998;2023-12-28T08:20:05;100660.69;;;14.62;40.74
84255;BME280;74400;44.692;18.998;2023-12-28T08:22:32;100659.03;;;14.48;40.41
84255;BME280;74400;44.692;18.998;2023-12-28T08:24:58;100665.97;;;15.32;39.33
84255;BME280;74400;44.692;18.998;2023-12-28T08:27:23;100674.88;;;16.21;37.50
84255;BME280;74400;44.692;18.998;2023-12-28T08:29:49;100674.75;;;16.22;38.19
84255;BME280;74400;44.692;18.998;2023-12-28T08:32:15;100672.53;;;16.63;36.75
84255;BME280;74400;44.692;18.998;2023-12-28T08:34:43;100671.13;;;17.13;36.44
84255;BME280;74400;44.692;18.998;2023-12-28T08:37:16;100677.81;;;17.69;35.40
84255;BME280;74400;44.692;18.998;2023-12-28T08:39:42;100676.13;;;18.09;34.79
84255;BME280;74400;44.692;18.998;2023-12-28T08:42:08;100679.91;;;17.96;34.97
84255;BME280;74400;44.692;18.998;2023-12-28T08:44:34;100697.63;;;18.32;35.22
84255;BME280;74400;44.692;18.998;2023-12-28T08:49:27;100697.03;;;18.19;35.64
84255;BME280;74400;44.692;18.998;2023-12-28T08:51:53;100706.41;;;18.31;35.46
84255;BME280;74400;44.692;18.998;2023-12-28T08:54:18;100700.47;;;18.60;35.03
84255;BME280;74400;44.692;18.998;2023-12-28T08:56:44;100698.88;;;18.69;34.81
84255;BME280;74400;44.692;18.998;2023-12-28T08:59:10;100688.81;;;19.14;33.80
84255;BME280;74400;44.692;18.998;2023-12-28T09:01:36;100683.72;;;19.12;33.98
84255;BME280;74400;44.692;18.998;2023-12-28T09:04:03;100691.13;;;19.07;33.85
84255;BME280;74400;44.692;18.998;2023-12-28T09:06:29;100681.72;;;18.26;35.94
84255;BME280;74400;44.692;18.998;2023-12-28T09:08:54;100665.34;;;18.54;35.52
84255;BME280;74400;44.692;18.998;2023-12-28T09:11:20;100673.28;;;19.12;34.30
84255;BME280;74400;44.692;18.998;2023-12-28T09:13:46;100678.09;;;19.27;33.55
84255;BME280;74400;44.692;18.998;2023-12-28T09:16:14;100676.06;;;18.61;35.14
84255;BME280;74400;44.692;18.998;2023-12-28T09:18:40;100672.50;;;17.91;36.29
84255;BME280;74400;44.692;18.998;2023-12-28T09:21:07;100684.03;;;16.92;38.56
84255;BME280;74400;44.692;18.998;2023-12-28T09:23:34;100686.09;;;15.05;44.74
84255;BME280;74400;44.692;18.998;2023-12-28T09:26:40;100675.00;;;13.66;48.40
84255;BME280;74400;44.692;18.998;2023-12-28T09:29:06;100678.75;;;12.93;50.64
84255;BME280;74400;44.692;18.998;2023-12-28T09:31:32;100668.81;;;12.46;51.23
84255;BME280;74400;44.692;18.998;2023-12-28T09:37:50;100666.34;;;11.11;55.68
84255;BME280;74400;44.692;18.998;2023-12-28T09:40:17;100658.66;;;11.26;54.98
84255;BME280;74400;44.692;18.998;2023-12-28T09:42:50;100662.44;;;11.04;54.82
84255;BME280;74400;44.692;18.998;2023-12-28T09:45:17;100655.63;;;11.03;55.76
84255;BME280;74400;44.692;18.998;2023-12-28T09:47:43;100644.94;;;10.95;56.34
84255;BME280;74400;44.692;18.998;2023-12-28T09:50:10;100638.97;;;10.79;57.29
84255;BME280;74400;44.692;18.998;2023-12-28T09:52:38;100633.41;;;10.71;59.96
84255;BME280;74400;44.692;18.998;2023-12-28T09:55:42;100632.25;;;10.61;60.78
84255;BME280;74400;44.692;18.998;2023-12-28T09:58:09;100637.91;;;10.51;60.90
84255;BME280;74400;44.692;18.998;2023-12-28T10:00:35;100632.91;;;10.48;62.61
84255;BME280;74400;44.692;18.998;2023-12-28T10:03:03;100634.16;;;10.57;61.63
84255;BME280;74400;44.692;18.998;2023-12-28T10:05:29;100631.59;;;10.73;60.75
84255;BME280;74400;44.692;18.998;2023-12-28T10:07:55;100622.03;;;10.91;59.62
84255;BME280;74400;44.692;18.998;2023-12-28T10:10:21;100619.13;;;10.97;59.39
84255;BME280;74400;44.692;18.998;2023-12-28T10:12:47;100616.00;;;11.06;59.44
84255;BME280;74400;44.692;18.998;2023-12-28T10:15:13;100611.22;;;11.30;59.52
84255;BME280;74400;44.692;18.998;2023-12-28T10:17:39;100610.63;;;11.41;58.23
84255;BME280;74400;44.692;18.998;2023-12-28T10:20:08;100612.22;;;11.57;57.10
84255;BME280;74400;44.692;18.998;2023-12-28T10:22:42;100608.34;;;11.64;56.72
84255;BME280;74400;44.692;18.998;2023-12-28T10:25:09;100610.50;;;11.72;57.88
84255;BME280;74400;44.692;18.998;2023-12-28T10:27:39;100599.34;;;11.72;58.16
84255;BME280;74400;44.692;18.998;2023-12-28T10:30:07;100606.06;;;11.74;58.69
84255;BME280;74400;44.692;18.998;2023-12-28T10:32:32;100590.41;;;11.77;58.12
84255;BME280;74400;44.692;18.998;2023-12-28T10:34:58;100593.75;;;11.79;58.54
84255;BME280;74400;44.692;18.998;2023-12-28T10:37:26;100588.34;;;11.84;58.21
84255;BME280;74400;44.692;18.998;2023-12-28T10:39:54;100599.09;;;11.90;58.43
84255;BME280;74400;44.692;18.998;2023-12-28T10:42:32;100591.09;;;11.95;57.22
84255;BME280;74400;44.692;18.998;2023-12-28T10:45:04;100579.13;;;11.94;56.88
84255;BME280;74400;44.692;18.998;2023-12-28T10:47:37;100579.97;;;11.95;56.77
84255;BME280;74400;44.692;18.998;2023-12-28T10:50:04;100574.16;;;12.05;57.22
84255;BME280;74400;44.692;18.998;2023-12-28T10:52:31;100575.34;;;12.14;55.49
84255;BME280;74400;44.692;18.998;2023-12-28T11:00:23;100570.09;;;12.15;56.30
84255;BME280;74400;44.692;18.998;2023-12-28T11:05:20;100568.63;;;12.26;55.02
84255;BME280;74400;44.692;18.998;2023-12-28T11:07:47;100559.00;;;12.28;55.66
84255;BME280;74400;44.692;18.998;2023-12-28T11:10:16;100555.50;;;12.29;55.81
84255;BME280;74400;44.692;18.998;2023-12-28T11:12:43;100546.94;;;12.28;55.35
84255;BME280;74400;44.692;18.998;2023-12-28T11:15:41;100536.00;;;12.25;55.40
84255;BME280;74400;44.692;18.998;2023-12-28T11:18:08;100536.84;;;12.25;54.71
84255;BME280;74400;44.692;18.998;2023-12-28T11:20:34;100527.84;;;12.18;55.24
84255;BME280;74400;44.692;18.998;2023-12-28T11:23:00;100532.69;;;12.23;55.19
84255;BME280;74400;44.692;18.998;2023-12-28T11:25:31;100523.19;;;12.23;55.17
84255;BME280;74400;44.692;18.998;2023-12-28T11:27:58;100512.44;;;12.16;54.97
84255;BME280;74400;44.692;18.998;2023-12-28T11:30:27;100512.94;;;12.36;54.55
84255;BME280;74400;44.692;18.998;2023-12-28T11:35:23;100510.22;;;12.25;54.68
84255;BME280;74400;44.692;18.998;2023-12-28T11:37:51;100509.13;;;12.14;54.81
84255;BME280;74400;44.692;18.998;2023-12-28T11:40:18;100499.19;;;12.08;55.07
84255;BME280;74400;44.692;18.998;2023-12-28T11:42:52;100508.59;;;12.09;55.47
84255;BME280;74400;44.692;18.998;2023-12-28T11:45:19;100505.63;;;12.15;54.43
84255;BME280;74400;44.692;18.998;2023-12-28T11:47:45;100507.09;;;12.19;54.79
84255;BME280;74400;44.692;18.998;2023-12-28T11:50:12;100495.84;;;12.20;55.06
84255;BME280;74400;44.692;18.998;2023-12-28T11:52:38;100493.66;;;12.14;54.88
84255;BME280;74400;44.692;18.998;2023-12-28T11:55:05;100501.50;;;12.13;54.76
84255;BME280;74400;44.692;18.998;2023-12-28T11:57:31;100483.06;;;12.19;54.34
84255;BME280;74400;44.692;18.998;2023-12-28T12:00:01;100486.38;;;12.21;54.36
84255;BME280;74400;44.692;18.998;2023-12-28T12:02:30;100487.94;;;12.24;54.16
84255;BME280;74400;44.692;18.998;2023-12-28T12:04:56;100487.72;;;12.27;54.20
84255;BME280;74400;44.692;18.998;2023-12-28T12:13:19;100481.19;;;12.48;53.49
84255;BME280;74400;44.692;18.998;2023-12-28T12:15:45;100469.94;;;12.49;53.33
84255;BME280;74400;44.692;18.998;2023-12-28T12:18:15;100476.28;;;12.58;52.95
84255;BME280;74400;44.692;18.998;2023-12-28T12:20:41;100462.25;;;12.62;53.13
84255;BME280;74400;44.692;18.998;2023-12-28T12:23:07;100468.88;;;12.66;52.69
84255;BME280;74400;44.692;18.998;2023-12-28T12:25:33;100473.41;;;12.62;52.72
84255;BME280;74400;44.692;18.998;2023-12-28T12:32:19;100469.09;;;12.76;52.26
84255;BME280;74400;44.692;18.998;2023-12-28T12:34:45;100465.78;;;12.73;52.53
84255;BME280;74400;44.692;18.998;2023-12-28T12:37:10;100458.16;;;12.72;52.31
84255;BME280;74400;44.692;18.998;2023-12-28T12:39:36;100454.22;;;12.79;51.57
84255;BME280;74400;44.692;18.998;2023-12-28T12:42:02;100455.34;;;12.75;51.39
84255;BME280;74400;44.692;18.998;2023-12-28T12:44:29;100463.53;;;12.69;52.26
84255;BME280;74400;44.692;18.998;2023-12-28T12:49:37;100468.41;;;12.99;51.50
84255;BME280;74400;44.692;18.998;2023-12-28T12:54:28;100469.56;;;12.95;51.99
84255;BME280;74400;44.692;18.998;2023-12-28T12:56:54;100463.63;;;12.93;51.55
84255;BME280;74400;44.692;18.998;2023-12-28T12:59:20;100463.03;;;12.89;52.33
84255;BME280;74400;44.692;18.998;2023-12-28T13:01:46;100458.16;;;12.85;51.34
84255;BME280;74400;44.692;18.998;2023-12-28T13:04:16;100462.63;;;12.83;51.28
84255;BME280;74400;44.692;18.998;2023-12-28T13:06:42;100466.53;;;12.76;51.47
84255;BME280;74400;44.692;18.998;2023-12-28T13:09:08;100468.25;;;12.75;51.62
84255;BME280;74400;44.692;18.998;2023-12-28T13:11:36;100455.84;;;12.67;52.02
84255;BME280;74400;44.692;18.998;2023-12-28T13:14:02;100456.78;;;12.66;52.16
84255;BME280;74400;44.692;18.998;2023-12-28T13:16:28;100456.69;;;12.68;52.11
84255;BME280;74400;44.692;18.998;2023-12-28T13:18:54;100455.84;;;12.67;52.20
84255;BME280;74400;44.692;18.998;2023-12-28T13:21:19;100461.03;;;12.67;52.06
84255;BME280;74400;44.692;18.998;2023-12-28T13:23:45;100460.84;;;12.70;51.76
84255;BME280;74400;44.692;18.998;2023-12-28T13:26:11;100455.34;;;12.62;51.94
84255;BME280;74400;44.692;18.998;2023-12-28T13:28:36;100460.41;;;12.64;52.25
84255;BME280;74400;44.692;18.998;2023-12-28T13:31:02;100467.66;;;12.71;51.90
84255;BME280;74400;44.692;18.998;2023-12-28T13:33:29;100462.81;;;12.80;51.69
84255;BME280;74400;44.692;18.998;2023-12-28T13:35:55;100475.53;;;12.83;51.06